Time;durP1;ratioP1;P1;durP2;ratioP2;P2;SDS_P1;SDS_P2;PMS_P1;PMS_P2;Temp;Humidity;BMP_temperature;BMP_pressure;BME280_temperature;BME280_humidity;BME280_pressure;Samples;Min_cycle;Max_cycle;Signal;HPM_P1;HPM_P2
2023/07/11 00:01:13;;;;;;;6.20;3.70;;;;;;;19.65;66.84;150974.56;4975190;28;20335;-62
2023/07/11 00:03:40;;;;;;;7.63;3.80;;;;;;;19.56;68.85;150954.50;4972579;28;20235;-63
2023/07/11 00:06:19;;;;;;;5.70;3.33;;;;;;;19.52;68.36;150943.28;4974028;28;20222;-62
2023/07/11 00:08:46;;;;;;;5.73;3.53;;;;;;;19.52;68.35;150944.50;4975074;28;20654;-63
2023/07/11 00:11:17;;;;;;;9.00;3.90;;;;;;;19.55;69.00;150952.00;4977325;28;20649;-62
2023/07/11 00:13:43;;;;;;;7.87;3.77;;;;;;;19.50;68.89;150939.47;4973778;28;20343;-63
2023/07/11 00:16:15;;;;;;;5.40;3.50;;;;;;;19.49;68.42;150935.75;4976426;28;20243;-62
2023/07/11 00:18:41;;;;;;;10.10;3.73;;;;;;;19.55;68.05;150950.78;4969789;28;20228;-62
2023/07/11 00:21:12;;;;;;;4.73;3.83;;;;;;;19.53;68.76;150947.00;4974889;28;20725;-63
2023/07/11 00:23:41;;;;;;;5.57;3.83;;;;;;;19.48;68.51;150934.47;4970666;28;20239;-63
2023/07/11 00:26:12;;;;;;;7.57;3.53;;;;;;;19.49;68.63;150936.97;4975315;28;20310;-63
2023/07/11 00:28:39;;;;;;;4.60;3.83;;;;;;;19.53;69.74;150945.78;4975997;28;20237;-63
2023/07/11 00:31:09;;;;;;;6.97;3.90;;;;;;;19.57;67.96;150955.78;4976865;28;20238;-63
2023/07/11 00:33:37;;;;;;;7.67;3.80;;;;;;;19.58;68.42;150959.53;4967874;28;20270;-63
2023/07/11 00:36:03;;;;;;;6.60;4.33;;;;;;;19.63;69.31;150970.78;4967474;28;20233;-63
2023/07/11 00:38:30;;;;;;;7.10;3.50;;;;;;;19.60;69.22;150964.53;4971789;28;20227;-63
2023/07/11 00:40:58;;;;;;;5.60;4.10;;;;;;;19.47;69.69;150933.25;4973022;28;20296;-63
2023/07/11 00:43:25;;;;;;;5.73;4.37;;;;;;;19.47;70.00;150931.97;4980018;28;20244;-63
2023/07/11 00:46:14;;;;;;;5.07;3.67;;;;;;;19.47;71.32;150931.97;4965587;28;20789;-64
2023/07/11 00:48:45;;;;;;;5.57;3.60;;;;;;;19.45;70.75;150926.97;4977761;28;20231;-63
2023/07/11 00:51:17;;;;;;;8.17;3.70;;;;;;;19.38;70.76;150910.72;4982738;28;20278;-63
2023/07/11 00:53:44;;;;;;;4.87;4.00;;;;;;;19.39;70.42;150913.22;4965371;28;20297;-63
2023/07/11 00:56:19;;;;;;;5.10;3.70;;;;;;;19.38;70.54;150909.44;4985581;28;20293;-63
2023/07/11 00:58:46;;;;;;;6.07;3.73;;;;;;;19.34;70.68;150900.69;4980160;28;20233;-63
2023/07/11 01:01:14;;;;;;;5.90;4.13;;;;;;;19.31;70.80;150894.41;4982244;28;20349;-63
2023/07/11 01:03:41;;;;;;;6.40;4.10;;;;;;;19.33;71.65;150898.19;4981511;28;20269;-63
2023/07/11 01:06:14;;;;;;;4.70;3.87;;;;;;;19.33;72.39;150899.41;4984232;28;20594;-63
2023/07/11 01:08:42;;;;;;;5.50;4.03;;;;;;;19.32;71.01;150895.69;4981586;28;20683;-63
2023/07/11 01:11:14;;;;;;;6.90;3.97;;;;;;;19.24;71.81;150875.63;4984595;28;20245;-64
2023/07/11 01:13:41;;;;;;;8.83;3.80;;;;;;;19.31;70.71;150894.41;4972418;28;20213;-63
2023/07/11 01:16:12;;;;;;;6.80;3.97;;;;;;;19.31;72.16;150894.41;4985120;28;20239;-63
2023/07/11 01:18:39;;;;;;;6.00;4.30;;;;;;;19.29;73.23;150888.16;4981334;28;20286;-63
2023/07/11 01:21:17;;;;;;;6.73;3.90;;;;;;;19.18;73.44;150863.13;4982246;28;20236;-63
2023/07/11 01:23:44;;;;;;;7.97;4.03;;;;;;;19.14;74.42;150851.81;4981503;28;20310;-63
2023/07/11 01:26:12;;;;;;;6.27;4.10;;;;;;;19.11;74.49;150845.59;4984945;28;20231;-63
2023/07/11 01:28:39;;;;;;;5.43;4.13;;;;;;;19.08;74.61;150838.06;4981392;28;20341;-63
2023/07/11 01:31:33;;;;;;;7.90;4.37;;;;;;;19.03;74.95;150825.56;4981056;28;20239;-63
2023/07/11 01:34:00;;;;;;;7.60;4.27;;;;;;;18.95;74.92;150805.47;4983269;28;20609;-63
2023/07/11 01:36:28;;;;;;;7.73;4.10;;;;;;;18.92;74.88;150797.97;4982431;28;20223;-63
2023/07/11 01:38:57;;;;;;;4.83;4.30;;;;;;;18.99;76.33;150816.81;4984996;28;20226;-63
2023/07/11 01:41:24;;;;;;;7.27;3.77;;;;;;;18.89;76.27;150791.72;4964385;28;20234;-63
2023/07/11 01:43:51;;;;;;;5.50;4.17;;;;;;;18.85;76.03;150782.94;4983140;28;20285;-63
2023/07/11 01:46:18;;;;;;;5.63;4.57;;;;;;;18.82;76.09;150774.19;4982108;28;20636;-63
2023/07/11 01:48:44;;;;;;;5.87;4.33;;;;;;;18.93;76.92;150800.47;4984895;28;20277;-63
2023/07/11 01:51:12;;;;;;;7.57;4.17;;;;;;;18.87;77.02;150786.72;4967350;28;20689;-63
2023/07/11 01:53:40;;;;;;;5.73;3.80;;;;;;;18.86;75.14;150785.44;4982375;28;20280;-63
2023/07/11 01:56:12;;;;;;;5.90;4.10;;;;;;;18.83;75.55;150776.72;4967162;28;20234;-63
2023/07/11 01:58:39;;;;;;;6.37;4.37;;;;;;;18.80;75.56;150770.41;4981339;28;20238;-63
2023/07/11 02:01:12;;;;;;;5.37;4.00;;;;;;;18.77;76.64;150761.69;4967138;28;20225;-63
2023/07/11 02:03:40;;;;;;;6.70;4.57;;;;;;;18.85;77.18;150782.94;4982255;28;20227;-63
2023/07/11 02:06:13;;;;;;;5.03;4.10;;;;;;;18.83;76.29;150777.94;4982758;28;20230;-66
2023/07/11 02:08:41;;;;;;;5.00;4.07;;;;;;;18.87;75.11;150786.72;4982559;28;20282;-63
2023/07/11 02:11:13;;;;;;;8.93;4.33;;;;;;;18.84;75.02;150780.44;4984162;28;20660;-63
2023/07/11 02:13:41;;;;;;;7.27;4.53;;;;;;;18.83;74.58;150777.94;4980741;28;20226;-63
2023/07/11 02:16:14;;;;;;;4.73;3.90;;;;;;;18.83;75.39;150776.72;4981856;28;20269;-64
2023/07/11 02:18:41;;;;;;;4.63;3.90;;;;;;;18.92;76.94;150799.25;4984159;28;20233;-63
2023/07/11 02:21:12;;;;;;;5.37;4.03;;;;;;;18.94;75.64;150802.97;4983996;28;20777;-63
2023/07/11 02:23:40;;;;;;;7.03;3.83;;;;;;;19.03;76.36;150826.84;4980146;28;20696;-63
2023/07/11 02:26:12;;;;;;;6.83;4.13;;;;;;;18.99;75.53;150816.81;4984042;28;20230;-63
2023/07/11 02:28:39;;;;;;;7.80;4.70;;;;;;;19.00;75.09;150818.03;4982707;28;20707;-63
2023/07/11 02:31:12;;;;;;;7.53;4.40;;;;;;;18.93;76.00;150800.47;4984798;28;20242;-63
2023/07/11 02:33:39;;;;;;;7.77;4.43;;;;;;;18.98;74.53;150814.31;4982349;28;20239;-63
2023/07/11 02:36:12;;;;;;;4.77;3.63;;;;;;;19.01;75.76;150820.53;4984504;28;20603;-63
2023/07/11 02:38:39;;;;;;;5.77;3.97;;;;;;;18.97;75.15;150810.53;4982278;28;20702;-63
2023/07/11 02:41:11;;;;;;;7.67;4.10;;;;;;;18.98;74.58;150813.03;4983487;28;20235;-63
2023/07/11 02:43:37;;;;;;;6.50;4.63;;;;;;;18.99;74.92;150816.81;4981282;28;20242;-63
2023/07/11 02:46:04;;;;;;;7.73;4.50;;;;;;;19.00;74.05;150819.31;4987209;28;20320;-63
2023/07/11 02:48:30;;;;;;;6.43;4.40;;;;;;;19.03;75.38;150825.56;4985406;28;20241;-63
2023/07/11 02:50:57;;;;;;;5.77;4.47;;;;;;;19.01;74.39;150820.53;4969516;28;20231;-63
2023/07/11 02:53:23;;;;;;;6.57;4.40;;;;;;;19.02;75.10;150824.31;4984706;28;20230;-63
2023/07/11 02:55:51;;;;;;;5.70;4.47;;;;;;;19.02;75.87;150823.06;4987715;28;20242;-63
2023/07/11 02:58:19;;;;;;;5.70;4.20;;;;;;;18.97;75.08;150810.53;4985115;28;20262;-63
2023/07/11 03:00:47;;;;;;;4.97;4.07;;;;;;;19.02;74.54;150823.06;4987415;28;20764;-62
2023/07/11 03:03:14;;;;;;;5.43;4.13;;;;;;;19.01;75.06;150820.53;4983764;28;20231;-62
2023/07/11 03:05:42;;;;;;;6.50;4.30;;;;;;;18.97;74.95;150811.81;4987621;28;20235;-62
2023/07/11 03:08:09;;;;;;;5.20;4.07;;;;;;;18.93;75.87;150801.75;4987722;28;20238;-62
2023/07/11 03:10:35;;;;;;;5.23;4.33;;;;;;;18.91;76.35;150796.72;4984966;28;20238;-62
2023/07/11 03:13:02;;;;;;;6.20;4.30;;;;;;;18.89;75.68;150792.97;4987588;28;20241;-62
2023/07/11 03:15:30;;;;;;;9.40;4.47;;;;;;;18.87;75.99;150786.72;4984914;28;20237;-63
2023/07/11 03:17:57;;;;;;;6.63;4.63;;;;;;;18.84;76.13;150779.22;4987872;28;20232;-63
2023/07/11 03:20:23;;;;;;;5.03;4.50;;;;;;;18.84;76.61;150779.22;4984908;28;20281;-63
2023/07/11 03:22:50;;;;;;;6.17;4.23;;;;;;;18.82;76.36;150774.19;4987015;28;20294;-63
2023/07/11 03:25:16;;;;;;;5.40;4.50;;;;;;;18.82;76.40;150774.19;4983676;28;20265;-63
2023/07/11 03:27:43;;;;;;;7.13;4.40;;;;;;;18.79;77.19;150766.69;4987039;28;20242;-63
2023/07/11 03:32:55;;;;;;;6.20;4.13;;;;;;;18.76;78.08;150760.41;5057022;23;20233;-63
2023/07/11 03:35:21;;;;;;;6.80;4.37;;;;;;;18.80;77.91;150769.19;4966123;28;20692;-63
2023/07/11 03:37:48;;;;;;;7.93;4.07;;;;;;;18.72;77.62;150751.66;4987551;28;20566;-63
2023/07/11 03:40:15;;;;;;;7.73;4.10;;;;;;;18.70;76.89;150745.38;4976165;28;20219;-63
2023/07/11 03:42:42;;;;;;;6.67;4.63;;;;;;;18.68;77.90;150740.38;4974571;28;20689;-63
2023/07/11 03:45:09;;;;;;;6.07;4.23;;;;;;;18.67;77.58;150737.88;4973870;28;20235;-64
2023/07/11 03:47:36;;;;;;;6.87;4.40;;;;;;;18.65;78.21;150732.88;4969719;28;20287;-63
2023/07/11 03:50:04;;;;;;;7.23;4.47;;;;;;;18.66;78.28;150735.38;4975484;28;20250;-63
2023/07/11 03:52:31;;;;;;;6.80;4.33;;;;;;;18.66;78.54;150736.66;4971699;28;20320;-63
2023/07/11 03:54:58;;;;;;;6.90;4.57;;;;;;;18.71;77.96;150747.88;4980240;28;20243;-63
2023/07/11 03:57:24;;;;;;;6.97;4.63;;;;;;;18.76;78.27;150759.19;4971100;28;20241;-63
2023/07/11 03:59:51;;;;;;;10.77;4.67;;;;;;;18.74;79.18;150756.66;4974544;28;20233;-63
2023/07/11 04:02:17;;;;;;;5.53;4.23;;;;;;;18.79;79.91;150766.69;4972924;28;20243;-63
2023/07/11 04:04:44;;;;;;;5.90;4.33;;;;;;;18.79;79.06;150767.91;4976119;28;20222;-63
2023/07/11 04:07:12;;;;;;;8.00;4.73;;;;;;;18.82;79.14;150775.44;4982571;28;20227;-63
2023/07/11 04:09:41;;;;;;;6.33;4.57;;;;;;;18.84;78.92;150780.44;4977458;28;20234;-63
2023/07/11 04:12:08;;;;;;;6.47;4.60;;;;;;;18.88;78.69;150789.22;4974013;28;20236;-63
2023/07/11 04:14:35;;;;;;;5.87;4.40;;;;;;;18.89;78.46;150792.97;4959392;28;20790;-63
2023/07/11 04:17:02;;;;;;;7.27;4.50;;;;;;;18.94;77.95;150802.97;4969938;28;20235;-63
2023/07/11 04:19:28;;;;;;;6.30;4.33;;;;;;;19.02;78.59;150824.31;4974413;28;20224;-63
2023/07/11 04:21:55;;;;;;;6.27;4.60;;;;;;;19.05;79.03;150829.34;4971767;28;20241;-63
2023/07/11 04:24:23;;;;;;;7.17;4.50;;;;;;;19.11;79.01;150844.31;4970444;28;20242;-63
2023/07/11 04:26:49;;;;;;;6.17;4.60;;;;;;;19.13;78.84;150849.31;4975605;28;20238;-63
2023/07/11 04:29:16;;;;;;;7.23;4.63;;;;;;;19.18;79.04;150861.84;4968731;28;20624;-63
2023/07/11 04:31:42;;;;;;;6.03;4.33;;;;;;;19.24;79.37;150875.63;4974466;28;20250;-63
2023/07/11 04:34:09;;;;;;;7.07;4.47;;;;;;;19.30;78.82;150891.91;4982236;28;20692;-63
2023/07/11 04:36:36;;;;;;;7.17;4.73;;;;;;;19.37;79.83;150908.19;4981764;28;20234;-63
2023/07/11 04:39:03;;;;;;;5.67;4.30;;;;;;;19.42;79.33;150920.72;4976169;28;20237;-63
2023/07/11 04:41:31;;;;;;;7.83;4.70;;;;;;;19.49;79.71;150936.97;4962497;28;20230;-63
2023/07/11 04:43:57;;;;;;;7.13;4.60;;;;;;;19.55;79.99;150950.78;4962317;28;20703;-63
2023/07/11 04:46:25;;;;;;;5.17;4.20;;;;;;;19.61;79.91;150967.03;4968164;28;20294;-63
2023/07/11 04:48:52;;;;;;;4.53;3.83;;;;;;;19.67;79.27;150979.56;4983104;28;20231;-63
2023/07/11 04:51:18;;;;;;;6.33;4.57;;;;;;;19.72;79.59;150992.09;4956937;28;20235;-63
2023/07/11 04:53:45;;;;;;;8.07;4.87;;;;;;;19.77;78.89;151004.63;4981016;28;20293;-63
2023/07/11 04:56:12;;;;;;;7.10;4.43;;;;;;;19.79;79.29;151009.63;4984048;28;20327;-63
2023/07/11 04:58:41;;;;;;;10.57;5.10;;;;;;;19.86;78.99;151025.88;4967832;28;20227;-63
2023/07/11 05:01:15;;;;;;;7.37;4.47;;;;;;;19.88;78.85;151030.91;4938069;28;20228;-63
2023/07/11 05:03:44;;;;;;;4.93;4.30;;;;;;;19.91;78.94;151039.75;4976066;28;20711;-63
2023/07/11 05:06:12;;;;;;;6.30;4.40;;;;;;;19.94;79.73;151044.75;4980021;28;20299;-63
2023/07/11 05:08:39;;;;;;;5.93;4.53;;;;;;;19.97;80.01;151053.50;4979618;28;20269;-63
2023/07/11 05:11:14;;;;;;;6.70;4.23;;;;;;;19.99;80.70;151058.50;4964981;28;20287;-63
2023/07/11 05:13:51;;;;;;;5.80;4.57;;;;;;;20.06;80.41;151074.81;4959118;28;20238;-63
2023/07/11 05:16:19;;;;;;;7.77;4.93;;;;;;;20.11;79.65;151086.06;4977947;28;20696;-63
2023/07/11 05:18:47;;;;;;;7.90;4.90;;;;;;;20.16;79.81;151099.81;4968266;28;20236;-63
2023/07/11 05:21:16;;;;;;;7.43;4.73;;;;;;;20.25;79.99;151121.16;4977411;28;20245;-63
2023/07/11 05:23:43;;;;;;;6.40;4.70;;;;;;;20.31;80.02;151134.91;4976567;28;20589;-63
2023/07/11 05:26:13;;;;;;;5.27;4.20;;;;;;;20.35;79.75;151146.19;4969873;28;20233;-63
2023/07/11 05:28:40;;;;;;;8.33;4.77;;;;;;;20.36;80.29;151147.44;4974892;28;20788;-63
2023/07/11 05:31:14;;;;;;;6.50;4.57;;;;;;;20.45;80.85;151168.75;4980649;28;20330;-63
2023/07/11 05:33:41;;;;;;;5.40;4.50;;;;;;;20.50;80.39;151182.53;4980857;28;20242;-63
2023/07/11 05:36:20;;;;;;;5.83;4.60;;;;;;;20.58;79.00;151200.06;4964913;28;20718;-63
2023/07/11 05:38:47;;;;;;;5.30;3.97;;;;;;;20.68;78.20;151223.84;4971417;28;20234;-63
2023/07/11 05:41:14;;;;;;;4.87;4.00;;;;;;;20.76;77.27;151245.19;4971908;28;20700;-63
2023/07/11 05:43:40;;;;;;;6.07;4.33;;;;;;;20.88;77.51;151274.03;4981105;28;20238;-63
2023/07/11 05:46:14;;;;;;;6.10;4.67;;;;;;;20.96;77.08;151292.84;4980213;28;20252;-63
2023/07/11 05:48:40;;;;;;;5.93;4.33;;;;;;;21.11;76.52;151327.94;4979347;28;20702;-63
2023/07/11 05:51:14;;;;;;;5.10;4.00;;;;;;;21.25;76.15;151363.00;4973652;28;20893;-63
2023/07/11 05:53:41;;;;;;;5.33;4.20;;;;;;;21.42;74.89;151403.13;4978502;28;20246;-63
2023/07/11 05:56:13;;;;;;;5.53;4.50;;;;;;;21.63;74.56;151454.59;4965993;28;20225;-63
2023/07/11 05:58:41;;;;;;;5.40;4.77;;;;;;;21.85;72.83;151507.22;4968105;28;20236;-63
2023/07/11 06:01:15;;;;;;;5.13;3.90;;;;;;;22.07;71.87;151561.16;4970647;28;20713;-63
2023/07/11 06:03:45;;;;;;;5.93;4.47;;;;;;;22.21;71.11;151596.28;4975225;28;20239;-63
2023/07/11 06:06:14;;;;;;;5.40;3.87;;;;;;;22.39;70.48;151638.88;4970741;28;20240;-63
2023/07/11 06:08:41;;;;;;;8.17;4.40;;;;;;;22.48;70.38;151661.50;4972793;28;20229;-63
2023/07/11 06:11:12;;;;;;;5.50;4.10;;;;;;;22.66;68.90;151704.16;4972962;28;20713;-63
2023/07/11 06:13:40;;;;;;;7.30;4.40;;;;;;;22.77;67.81;151730.53;4969446;28;20236;-63
2023/07/11 06:16:16;;;;;;;4.90;3.80;;;;;;;22.86;67.58;151753.06;4961522;28;20234;-63
2023/07/11 06:18:43;;;;;;;6.10;4.13;;;;;;;23.06;66.86;151802.03;4979419;28;20243;-64
2023/07/11 06:21:12;;;;;;;5.73;4.50;;;;;;;23.15;66.61;151823.34;4984069;28;20244;-64
2023/07/11 06:23:39;;;;;;;7.20;4.30;;;;;;;23.23;64.95;151843.47;4983400;28;20236;-64
2023/07/11 06:26:31;;;;;;;5.90;4.33;;;;;;;23.42;65.62;151889.88;4981267;28;20626;-63
2023/07/11 06:28:57;;;;;;;5.10;4.20;;;;;;;23.58;64.61;151928.81;4983330;28;20229;-63
2023/07/11 06:31:26;;;;;;;5.03;4.43;;;;;;;23.71;63.81;151960.16;4964417;28;20247;-63
2023/07/11 06:33:52;;;;;;;6.93;5.00;;;;;;;23.81;62.77;151982.75;4970762;28;20586;-63
2023/07/11 06:36:19;;;;;;;9.63;5.17;;;;;;;23.80;59.99;151980.25;4973094;28;20232;-63
2023/07/11 06:38:45;;;;;;;8.40;5.60;;;;;;;23.80;58.74;151981.53;4965965;28;20238;-63
2023/07/11 06:41:12;;;;;;;6.47;4.50;;;;;;;23.93;60.68;152011.59;4980395;28;20251;-63
2023/07/11 06:43:39;;;;;;;7.70;4.87;;;;;;;23.99;60.83;152028.00;4982060;28;20233;-63
2023/07/11 06:46:32;;;;;;;7.00;5.00;;;;;;;24.12;59.47;152059.38;4979208;28;20330;-63
2023/07/11 06:48:59;;;;;;;6.70;4.40;;;;;;;24.16;60.25;152068.19;4979696;28;20243;-63
2023/07/11 06:51:26;;;;;;;8.83;5.07;;;;;;;24.28;60.55;152098.31;4983054;28;20224;-63
2023/07/11 06:53:54;;;;;;;6.10;4.90;;;;;;;24.32;59.55;152107.06;4981393;28;20237;-63
2023/07/11 06:56:21;;;;;;;8.53;5.50;;;;;;;24.37;59.04;152118.41;4976274;28;20697;-64
2023/07/11 06:58:48;;;;;;;8.30;5.30;;;;;;;24.17;58.18;152070.69;4977700;28;20239;-64
2023/07/11 07:01:21;;;;;;;7.03;5.10;;;;;;;24.31;57.50;152105.84;4967957;28;20232;-64
2023/07/11 07:03:50;;;;;;;8.07;5.73;;;;;;;24.43;56.81;152133.41;4984369;28;20633;-64
2023/07/11 07:06:17;;;;;;;7.80;5.37;;;;;;;24.45;56.27;152138.44;4978778;28;20322;-64
2023/07/11 07:08:44;;;;;;;8.70;5.33;;;;;;;24.44;57.00;152137.22;4984376;28;20231;-64
2023/07/11 07:11:12;;;;;;;8.87;5.60;;;;;;;24.45;57.06;152138.44;4987688;28;20227;-60
2023/07/11 07:13:39;;;;;;;6.97;5.30;;;;;;;24.60;57.50;152176.13;4978349;28;21255;-60
2023/07/11 07:16:32;;;;;;;6.77;5.07;;;;;;;24.76;56.12;152215.13;4970603;28;20233;-60
2023/07/11 07:19:00;;;;;;;7.60;5.37;;;;;;;24.91;56.15;152250.25;4967431;28;20242;-60
2023/07/11 07:21:26;;;;;;;7.57;5.70;;;;;;;25.12;55.36;152301.78;4981733;28;20235;-60
2023/07/11 07:23:53;;;;;;;7.80;5.20;;;;;;;25.27;54.01;152338.19;4983770;28;20318;-60
2023/07/11 07:26:20;;;;;;;10.77;5.63;;;;;;;25.29;54.40;152343.19;4971018;28;20340;-60
2023/07/11 07:28:46;;;;;;;8.43;5.10;;;;;;;25.44;54.02;152379.66;4970592;28;20702;-61
2023/07/11 07:31:13;;;;;;;6.10;5.33;;;;;;;25.51;52.57;152396.00;4963316;28;20566;-61
2023/07/11 07:33:40;;;;;;;9.53;5.60;;;;;;;25.60;51.77;152417.34;4980680;28;20697;-61
2023/07/11 07:36:14;;;;;;;8.27;4.83;;;;;;;25.55;51.05;152406.06;4981904;28;20235;-65
2023/07/11 07:38:40;;;;;;;8.07;4.75;;;;;;;25.44;52.41;152379.66;4979623;28;20668;-65
2023/07/11 07:41:12;;;;;;;5.83;5.00;;;;;;;25.40;52.15;152368.31;4973360;28;20236;-61
2023/07/11 07:43:40;;;;;;;9.17;5.20;;;;;;;25.55;52.11;152406.06;4967559;28;20224;-63
2023/07/11 07:46:15;;;;;;;8.40;4.90;;;;;;;25.64;52.21;152427.41;4970308;28;20235;-63
2023/07/11 07:48:43;;;;;;;9.02;5.47;;;;;;;25.15;52.45;152309.31;4979001;28;20730;-63
2023/07/11 07:51:15;;;;;;;6.88;4.85;;;;;;;25.51;52.04;152396.00;4981896;28;20241;-63
2023/07/11 07:53:42;;;;;;;9.23;5.20;;;;;;;25.72;51.79;152447.50;4979883;28;20810;-63
2023/07/11 07:56:15;;;;;;;7.77;5.30;;;;;;;25.90;51.16;152490.22;4983166;28;20692;-63
2023/07/11 07:58:42;;;;;;;8.05;5.05;;;;;;;26.31;50.30;152589.53;4978297;28;20319;-63
2023/07/11 08:01:15;;;;;;;9.02;5.03;;;;;;;26.65;48.86;152672.50;4980618;28;20233;-63
2023/07/11 08:03:42;;;;;;;9.17;5.73;;;;;;;26.77;49.38;152701.38;4982975;28;20225;-63
2023/07/11 08:06:16;;;;;;;6.70;5.30;;;;;;;26.88;48.62;152727.88;4983517;28;20317;-63
2023/07/11 08:08:43;;;;;;;8.27;5.45;;;;;;;26.84;48.46;152719.03;4977969;28;20244;-66
2023/07/11 08:11:12;;;;;;;6.97;4.78;;;;;;;26.79;49.38;152706.41;4982585;28;20234;-66
2023/07/11 08:13:39;;;;;;;7.00;5.35;;;;;;;26.95;50.44;152745.47;4980329;28;20297;-64
2023/07/11 08:16:31;;;;;;;7.53;5.00;;;;;;;27.36;49.53;152846.00;4973605;28;20273;-65
2023/07/11 08:18:58;;;;;;;6.38;5.28;;;;;;;27.66;47.42;152919.00;4975234;28;20235;-65
2023/07/11 08:21:26;;;;;;;8.02;5.13;;;;;;;27.63;47.72;152911.44;4977266;28;20236;-65
2023/07/11 08:23:53;;;;;;;8.38;5.07;;;;;;;27.77;47.92;152945.38;4973309;28;20241;-65
2023/07/11 08:26:21;;;;;;;9.38;5.80;;;;;;;28.07;48.20;153018.34;4963232;28;20242;-64
2023/07/11 08:28:47;;;;;;;8.32;5.43;;;;;;;28.40;46.75;153097.63;4984032;28;20238;-64
2023/07/11 08:31:14;;;;;;;6.95;4.88;;;;;;;28.59;45.42;153144.19;4979321;28;20236;-64
2023/07/11 08:33:41;;;;;;;8.50;5.30;;;;;;;28.41;45.67;153101.44;4978118;28;20239;-64
2023/07/11 08:36:13;;;;;;;7.15;5.45;;;;;;;28.32;45.99;153078.78;4966879;28;20240;-65
2023/07/11 08:38:40;;;;;;;7.38;5.75;;;;;;;28.31;47.32;153076.25;4979819;28;20309;-65
2023/07/11 08:41:24;;;;;;;8.57;5.47;;;;;;;28.46;46.92;153111.50;4956359;28;20613;-65
2023/07/11 08:43:53;;;;;;;6.22;5.22;;;;;;;28.38;47.88;153093.88;4977591;28;20236;-65
2023/07/11 08:46:22;;;;;;;6.28;5.65;;;;;;;28.37;48.10;153091.34;4977816;28;20233;-65
2023/07/11 08:48:54;;;;;;;8.10;5.30;;;;;;;28.47;48.74;153114.00;4979485;28;20724;-65
2023/07/11 08:51:25;;;;;;;9.18;6.28;;;;;;;28.41;47.90;153101.44;4979687;28;20235;-65
2023/07/11 08:54:03;;;;;;;7.78;5.70;;;;;;;28.32;49.14;153078.78;4981879;28;20230;-65
2023/07/11 08:56:36;;;;;;;7.63;5.78;;;;;;;28.50;49.22;153121.56;4981153;28;20228;-65
2023/07/11 08:59:07;;;;;;;11.02;6.03;;;;;;;28.46;49.15;153111.50;4981622;28;20595;-65
2023/07/11 09:01:42;;;;;;;9.35;6.38;;;;;;;28.48;49.78;153116.53;4973825;28;20700;-65
2023/07/11 09:04:11;;;;;;;10.65;5.97;;;;;;;28.45;49.83;153110.22;4980668;28;20232;-65
2023/07/11 09:06:44;;;;;;;9.65;6.00;;;;;;;28.70;50.01;153170.59;4977114;28;20234;-65
2023/07/11 09:09:12;;;;;;;7.82;5.60;;;;;;;28.79;48.74;153193.31;4984069;28;20232;-65
2023/07/11 09:11:48;;;;;;;7.97;5.82;;;;;;;28.85;48.41;153207.13;4987025;28;20638;-65
2023/07/11 09:14:27;;;;;;;6.78;5.90;;;;;;;28.83;49.29;153203.38;4979064;28;20263;-65
2023/07/11 09:17:01;;;;;;;8.55;5.80;;;;;;;28.97;49.11;153236.09;4982300;28;20247;-65
2023/07/11 09:19:39;;;;;;;10.95;6.10;;;;;;;29.00;49.32;153243.63;4980203;28;20308;-65
2023/07/11 09:22:16;;;;;;;10.27;5.82;;;;;;;29.28;50.71;153312.84;4983475;28;20595;-65
2023/07/11 09:24:49;;;;;;;6.88;6.15;;;;;;;29.29;48.83;153315.34;4977967;28;20241;-65
2023/07/11 09:27:22;;;;;;;8.32;6.57;;;;;;;29.38;49.15;153336.78;4976321;28;20703;-65
2023/07/11 09:29:50;;;;;;;9.07;6.43;;;;;;;29.60;49.27;153390.94;4964564;28;20763;-65
2023/07/11 09:32:18;;;;;;;8.38;6.05;;;;;;;29.59;49.64;153388.41;4959302;28;20238;-65
2023/07/11 09:34:46;;;;;;;7.63;6.47;;;;;;;29.58;49.90;153385.91;4971963;28;20298;-65
2023/07/11 09:37:26;;;;;;;6.68;6.00;;;;;;;29.70;49.07;153413.53;4982416;28;20289;-65
2023/07/11 09:40:03;;;;;;;11.02;6.35;;;;;;;29.83;49.18;153446.28;4980923;28;20729;-65
2023/07/11 09:42:41;;;;;;;7.18;6.20;;;;;;;29.74;49.87;153424.91;4979711;28;20229;-65
2023/07/11 09:45:11;;;;;;;11.60;6.00;;;;;;;29.92;49.82;153467.69;4983000;28;20232;-65
2023/07/11 09:47:39;;;;;;;10.43;6.10;;;;;;;29.94;48.15;153472.72;4976618;28;20712;-65
2023/07/11 09:50:22;;;;;;;9.23;6.30;;;;;;;29.78;46.93;153433.69;4982513;28;20229;-65
2023/07/11 09:52:49;;;;;;;7.80;6.10;;;;;;;29.94;47.49;153471.44;4977261;28;20241;-65
2023/07/11 09:55:28;;;;;;;7.60;6.10;;;;;;;29.97;47.79;153480.28;4977111;28;20217;-65
2023/07/11 09:57:55;;;;;;;8.35;6.10;;;;;;;30.17;47.88;153528.19;4970371;28;20232;-65
2023/07/11 10:00:21;;;;;;;9.10;6.13;;;;;;;30.23;45.95;153543.25;4965271;28;20221;-65
2023/07/11 10:02:49;;;;;;;8.85;6.32;;;;;;;29.96;47.78;153476.50;4984804;28;20244;-65
2023/07/11 10:05:17;;;;;;;8.00;6.25;;;;;;;30.18;46.43;153531.94;4980424;28;20236;-65
2023/07/11 10:07:44;;;;;;;10.63;6.53;;;;;;;30.27;46.02;153553.31;4982044;28;20226;-65
2023/07/11 10:10:14;;;;;;;9.32;6.13;;;;;;;30.26;46.24;153550.81;4965523;28;20229;-65
2023/07/11 10:12:45;;;;;;;10.25;6.28;;;;;;;30.38;45.88;153578.50;4963818;28;20249;-65
2023/07/11 10:15:16;;;;;;;7.70;5.85;;;;;;;30.26;46.39;153549.56;4955366;28;20221;-65
2023/07/11 10:17:45;;;;;;;10.48;6.32;;;;;;;30.38;44.90;153578.50;4961384;28;20293;-65
2023/07/11 10:20:16;;;;;;;10.95;6.05;;;;;;;30.32;45.07;153565.91;4966416;28;20237;-65
2023/07/11 10:22:44;;;;;;;11.18;6.07;;;;;;;30.53;44.33;153616.28;4963031;28;20229;-65
2023/07/11 10:25:17;;;;;;;10.68;5.75;;;;;;;30.78;43.18;153678.03;4965377;28;20233;-65
2023/07/11 10:27:50;;;;;;;7.85;5.50;;;;;;;30.94;45.03;153715.81;4982720;28;20594;-65
2023/07/11 10:30:21;;;;;;;9.07;5.22;;;;;;;31.01;41.83;153732.22;4982465;28;20271;-65
2023/07/11 10:32:56;;;;;;;7.28;5.80;;;;;;;31.12;41.61;153758.63;4986893;28;20290;-65
2023/07/11 10:35:24;;;;;;;8.27;5.68;;;;;;;31.13;41.10;153762.44;4968311;28;20252;-65
2023/07/11 10:37:56;;;;;;;7.72;5.53;;;;;;;31.13;43.19;153761.16;4976288;28;20301;-65
2023/07/11 10:40:27;;;;;;;9.73;5.97;;;;;;;31.32;42.89;153809.06;4965971;28;20665;-65
2023/07/11 10:43:04;;;;;;;9.98;5.85;;;;;;;31.30;41.75;153804.03;4971974;28;20438;-65
2023/07/11 10:45:36;;;;;;;7.95;5.47;;;;;;;31.12;42.47;153758.63;4961619;28;20598;-65
2023/07/11 10:48:11;;;;;;;8.00;5.80;;;;;;;31.32;41.89;153807.78;4945424;28;20587;-65
2023/07/11 10:50:43;;;;;;;7.40;5.60;;;;;;;31.59;40.83;153874.59;4957945;28;20229;-65
2023/07/11 10:53:19;;;;;;;6.95;5.60;;;;;;;31.60;40.50;153877.09;4971090;28;20225;-65
2023/07/11 10:55:53;;;;;;;9.50;5.55;;;;;;;31.75;40.65;153913.66;4973542;28;20282;-65
2023/07/11 10:58:23;;;;;;;8.57;5.80;;;;;;;31.66;40.04;153890.94;4979594;28;20276;-65
2023/07/11 11:00:58;;;;;;;7.57;6.20;;;;;;;31.64;40.03;153887.19;4970778;28;20281;-65
2023/07/11 11:03:38;;;;;;;7.13;5.82;;;;;;;31.75;40.11;153912.44;4963859;28;20256;-65
2023/07/11 11:06:23;;;;;;;12.45;6.18;;;;;;;31.83;39.51;153931.31;4977448;28;20243;-65
2023/07/11 11:08:57;;;;;;;8.82;5.85;;;;;;;31.97;39.62;153965.31;4979673;28;20233;-65
2023/07/11 11:11:34;;;;;;;10.65;6.05;;;;;;;32.03;40.00;153980.44;4972746;28;20938;-65
2023/07/11 11:14:11;;;;;;;9.52;6.43;;;;;;;31.98;40.53;153967.84;4965002;28;20241;-65
2023/07/11 11:16:46;;;;;;;11.38;6.60;;;;;;;32.19;39.47;154019.53;4961907;28;20229;-65
2023/07/11 11:19:25;;;;;;;11.80;7.05;;;;;;;32.20;40.43;154023.28;4971412;28;20735;-65
2023/07/11 11:22:01;;;;;;;8.23;6.60;;;;;;;32.23;40.81;154030.84;4953348;28;20229;-65
2023/07/11 11:24:37;;;;;;;11.18;6.53;;;;;;;32.15;39.83;154010.69;4951215;28;20260;-65
2023/07/11 11:27:16;;;;;;;8.05;6.55;;;;;;;32.05;40.42;153985.47;4972729;28;20225;-65
2023/07/11 11:29:52;;;;;;;9.15;6.13;;;;;;;32.32;41.50;154051.06;4979655;28;20703;-65
2023/07/11 11:32:26;;;;;;;10.38;6.72;;;;;;;32.42;40.25;154076.25;4977886;28;20240;-65
2023/07/11 11:35:15;;;;;;;9.68;6.88;;;;;;;31.99;41.16;153970.34;4984004;28;20248;-65
2023/07/11 11:37:58;;;;;;;9.38;6.88;;;;;;;32.35;40.50;154058.63;4965609;28;20246;-65
2023/07/11 11:40:29;;;;;;;10.93;6.45;;;;;;;32.48;40.16;154090.09;4960559;28;20701;-65